Oakdale, CT

4:05 AM EST on January 29, 2015 (GMT -0500)
Windham | Change Station
CLOSE
Current Station
Airport
Location: Willimantic,
Elevation: 246 ft
Nearby Weather Stations

Elev 246 ft 41.74 °N, 72.18 °W | Updated 13 minutes ago

Clear
Clear
-6 °F
Feels Like -15 °F
N
4
Wind Variable Wind from NE

Today
High -- | Low -- °F
--% Chance of Precip.
Yesterday
High -- | Low -- °F
Precip. -- in
7:03 AM 5:00 PM
Waxing Gibbous, 72% visible
Pressure 30.32 in
Visibility 9.0 miles
Clouds Clear
Windchill -15 °F
Dew Point -10 °F
Humidity 83%
Rainfall 0.00 in
Snow Depth Not available.
UV 0 out of 12
Pollen .10 out of 12
Air Quality Not available.
Flu Activity Not available.
METAR KIJD 290852Z AUTO 05003KT 9SM CLR M21/M23 A3030 RMK AO2 SLP266 I1000 I3000 T12111233 52016

More Conditions Fewer Conditions

Pressure 30.32 in
Visibility 9.0 miles
Clouds Clear
Windchill -15 °F
Dew Point -10 °F
Humidity 83%
Rainfall 0.00 in
Snow Depth Not available.
UV 0 out of 12
Pollen .10 out of 12
Air Quality Not available.
Flu Activity Not available.
METAR KIJD 290852Z AUTO 05003KT 9SM CLR M21/M23 A3030 RMK AO2 SLP266 I1000 I3000 T12111233 52016

More Conditions Fewer Conditions

10-Day Weather Forecast

Almanac

Astronomy

Jan. 29, 2015 Rise Set
Actual Time
Civil Twilight
Nautical Twilight
Astronomical Twilight
Moon
Length of Visible Light
Length of Day
Tomorrow will be .
, % of the Moon is Illuminated

Today's Extremes

State Highs State Lows

Community

WunderPhotos

Upload Photos

1,791,389 photos uploaded!

WunderBlogs® & News

Nearby

Air Quality

  Air Quality AQ Index Pollutant
Not available.

Snow Depth

Station Depth Elevation

Earthquake Activity

City Distance Mag. Time & Date
Minimum magnitude displayed is 2.5.

Coastal Water Temperatures

Place Temperature

Nearby Weather Stations